Terminal Aerodrome Forecast
Issued by NWS Twin Cities, MN

Home | Current Version | Previous Version | Text Only | Print | Product List | Glossary On
Versions: 1 2 3 4 5 6 7 8 9 10 11 12 13 14 15
796
FTUS43 KMPX 141740
TAFEAU
TAF
KEAU 141740Z 1418/1518 14010KT 5SM -SN SCT025 OVC040
      TEMPO 1419/1421 2SM -SN BKN025
     FM142100 14010KT 4SM -SN BKN025 OVC035
     FM150400 15006KT 6SM -SN BKN015 OVC025
     FM150700 17003KT P6SM OVC012=

USA.gov is the U.S. government's official web portal to all federal, state and local government web resources and services.